Lancaster, PA

12:35 PM EST on February 11, 2016 (GMT -0500)
Paradise | | Change Station
CLOSE
Current Station
Personal Weather Station
Location: Paradise, PA
Elevation: 365 ft
Nearby Weather Stations

Elev 365 ft 40.01 °N, 76.14 °W | Updated 6 minutes ago

Clear
Clear
21.4 °F
Feels Like 8 °F
N
14.0
Wind Variable Wind from WNW
Gusts 22.0 mph

Today
High -- | Low -- °F
--% Chance of Precip.
Yesterday
High -- | Low -- °F
Precip. -- in
Pressure 30.04 in
Visibility 10.0 miles
Clouds Overcast 5000 ft
Windchill 8 °F
Dew Point 7 °F
Humidity 53%
Rainfall 0.00 in
Snow Depth Not available.
7:03 AM 5:35 PM
Waxing Crescent, 13% visible
METAR KLNS 111653Z AUTO 29019G26KT 10SM OVC050 M06/M14 A3002 RMK AO2 PK WND 29031/1630 UPB1557E1558 SLP172 P0000 T10611144
Pressure 30.04 in
Visibility 10.0 miles
Clouds Overcast 5000 ft
Windchill 8 °F
Dew Point 7 °F
Humidity 53%
Rainfall 0.00 in
Snow Depth Not available.
7:03 AM 5:35 PM
Waxing Crescent, 13% visible
METAR KLNS 111653Z AUTO 29019G26KT 10SM OVC050 M06/M14 A3002 RMK AO2 PK WND 29031/1630 UPB1557E1558 SLP172 P0000 T10611144

10-Day Weather Forecast

Almanac

Astronomy

Feb. 11, 2016 Rise Set
Actual Time
Civil Twilight
Nautical Twilight
Astronomical Twilight
Moon
Length of Visible Light
Length of Day
Tomorrow will be .
, % of the Moon is Illuminated

Today's Extremes

State Highs State Lows

Community

WunderPhotos

Upload Photos

1,892,109 photos uploaded!

WunderBlog® & News

Nearby

Air Quality

  Air Quality AQ Index Pollutant
Not available.

Snow Depth

Station Depth Elevation

Earthquake Activity

City Distance Mag. Time & Date
Minimum magnitude displayed is 2.5.

Coastal Water Temperatures

Place Temperature

Stations

Nearby Weather Stations

Station Location Temp. Windchill Dew Point Humidity Wind Precip. Elev Updated Type
                   

Watches & Warnings

There are currently no watches in effect.